Terminal Aerodrome Forecast
Issued by NWS Buffalo, NY

Home | Current Version | Previous Version | Text Only | Print | Product List | Glossary On
Versions: 1 2 3 4 5 6 7 8 9 10 11 12 13 14 15 16 17 18 19 20 21 22 23 24 25
000
FTUS41 KBUF 302300
TAFART
TAF
KART 302325Z 0100/0124 03010KT P6SM OVC080
     FM010200 04006KT P6SM SCT060 BKN070
     FM010800 05005KT P6SM BKN045 BKN100
     FM011500 05006KT P6SM SCT200=

USA.gov is the U.S. government's official web portal to all federal, state and local government web resources and services.